Página principal
METAR-TAF:

METAR-TAF

Aeroportos :

Aeroporto Internacional do Bahrain

Bahrein, Bahrein

latitude: 26-16N, longitude: 050-39E, altura: 2 m

Observação actual do tempo

O boletim foi feito há 32 minutos, às 02:30 UTC
Vento 7 kt de su-sudeste, variando entre es-sudeste e sul
Temperatura 28°C
Humidade 42%
Pressão 1007 hPa
Visibilidade 10 km ou mais
sem nuvens abaixo de 1500 metros e sem cumulonimbus

METAR: OBBI 190230Z 15007KT 120V180 CAVOK 28/14 Q1007 NOSIG

Hora: 06:02 (03:02 UTC)

Previsão

O boletim foi feito há 4 horas e 2 minutos, às 23:00 UTC
Previsão válida de 19 às 00 UTC a 20 às 06 UTC
Vento 12 kt de sudeste
Visibilidade 10 km ou mais
sem nuvens abaixo de 1500 metros e sem cumulonimbus
Tornando-se
de 19 às 14 UTC a 19 às 16 UTC
Vento 10 kt de nordeste

TAF: OBBI 182300Z 1900/2006 13012KT CAVOK BECMG 1914/1916 04010KT

Observações e previsões do tempo de mais de 4000 aeroportos (mensagens METAR e TAF).

As estações disponíveis são os pontos amarelos e vermelhos sobre o mapa.

Mova o rato sobre o mapa para ver o nome da estação.

Depois clique no ponto para visualizar as observações e previsões meteorológicas.

Para alterar o mapa : clique nos botões verdes com uma cruz preta para aumentar o zoom; no botão verde com uma pitada de zoom; ou nas setas verdes para mapas adjacentes.


METAR-TAF: